<?xml version="1.0" encoding="UTF-8" standalone="no" ?>
<gpx xmlns="http://www.topografix.com/GPX/1/1" xmlns:xsi="http://www.w3.org/2001/XMLSchema-instance" xsi:schemaLocation="http://www.topografix.com/GPX/1/1 http://www.topografix.com/GPX/1/1/gpx.xsd" version="1.1" creator="VisuGPX - https://www.visugpx.com">
  <metadata>
    <name>Payzac - Les Chanels</name>
    <desc><![CDATA[Une promenade dans ce pays grézeux, des hameaux, des croix, des vignes et des pierres.]]></desc>
  </metadata>
  <trk>
    <name><![CDATA[2017-10-10 13:52]]></name>
    <desc><![CDATA[<p>Heure de départ: 10/10/2017 13:52<br/>Heure d'arrivée: 10/10/2017 17:05<br/>Distance: 8,7 km (03:13)<br/>Temps déplacement: 02:09<br/>Vitesse moyenne: 2,7 km/h<br/>Vitesse moyenne mouv.: 4,02 km/h<br/>Vitesse Max.: 8,05 km/h<br/>Altitude minimale: 296 m<br/>Altitude maximale: 444 m<br/>Vitesse de montée: 234,2 m/h<br/>Vitesse de descente: -277,9 m/h<br/>Gain d'altitude: 383 m<br/>Perte d'altitude: -364 m<br/>Temps de montée: 01:38<br/>Temps de descente: 01:18<br/></p><hr align="center" width="480" style="height: 2px; width: 517px"/>]]></desc>
    <trkseg>
      <trkpt lat="44.45391" lon="4.15255">
        <ele>393.6</ele>
        <time>2017-10-10T11:52:50Z</time>
      </trkpt>
      <trkpt lat="44.45374" lon="4.15266">
        <ele>385.18</ele>
        <time>2017-10-10T11:54:01Z</time>
      </trkpt>
      <trkpt lat="44.45355" lon="4.15267">
        <ele>388.86</ele>
        <time>2017-10-10T11:54:06Z</time>
      </trkpt>
      <trkpt lat="44.45338" lon="4.15276">
        <ele>392.39</ele>
        <time>2017-10-10T11:54:40Z</time>
      </trkpt>
      <trkpt lat="44.45327" lon="4.15295">
        <ele>390.92</ele>
        <time>2017-10-10T11:55:04Z</time>
      </trkpt>
      <trkpt lat="44.45308" lon="4.15291">
        <ele>385.47</ele>
        <time>2017-10-10T11:55:37Z</time>
      </trkpt>
      <trkpt lat="44.4529" lon="4.15289">
        <ele>382.95</ele>
        <time>2017-10-10T11:55:57Z</time>
      </trkpt>
      <trkpt lat="44.45274" lon="4.15275">
        <ele>381.66</ele>
        <time>2017-10-10T11:56:13Z</time>
      </trkpt>
      <trkpt lat="44.45256" lon="4.15281">
        <ele>369.99</ele>
        <time>2017-10-10T11:56:32Z</time>
      </trkpt>
      <trkpt lat="44.45238" lon="4.15289">
        <ele>373.69</ele>
        <time>2017-10-10T11:56:44Z</time>
      </trkpt>
      <trkpt lat="44.4522" lon="4.15294">
        <ele>375.69</ele>
        <time>2017-10-10T11:57:03Z</time>
      </trkpt>
      <trkpt lat="44.45201" lon="4.15301">
        <ele>372.35</ele>
        <time>2017-10-10T11:57:29Z</time>
      </trkpt>
      <trkpt lat="44.45183" lon="4.15305">
        <ele>366.68</ele>
        <time>2017-10-10T11:57:57Z</time>
      </trkpt>
      <trkpt lat="44.45166" lon="4.15314">
        <ele>362.69</ele>
        <time>2017-10-10T11:58:20Z</time>
      </trkpt>
      <trkpt lat="44.45149" lon="4.15329">
        <ele>362.3</ele>
        <time>2017-10-10T11:58:49Z</time>
      </trkpt>
      <trkpt lat="44.45133" lon="4.15343">
        <ele>356.51</ele>
        <time>2017-10-10T11:59:12Z</time>
      </trkpt>
      <trkpt lat="44.4512" lon="4.15361">
        <ele>359.5</ele>
        <time>2017-10-10T11:59:30Z</time>
      </trkpt>
      <trkpt lat="44.45111" lon="4.15386">
        <ele>354.67</ele>
        <time>2017-10-10T11:59:52Z</time>
      </trkpt>
      <trkpt lat="44.45101" lon="4.15409">
        <ele>360.76</ele>
        <time>2017-10-10T12:00:00Z</time>
      </trkpt>
      <trkpt lat="44.45089" lon="4.15428">
        <ele>345.09</ele>
        <time>2017-10-10T12:00:28Z</time>
      </trkpt>
      <trkpt lat="44.45073" lon="4.15439">
        <ele>345.99</ele>
        <time>2017-10-10T12:00:43Z</time>
      </trkpt>
      <trkpt lat="44.45059" lon="4.15456">
        <ele>352.68</ele>
        <time>2017-10-10T12:00:52Z</time>
      </trkpt>
      <trkpt lat="44.45051" lon="4.1548">
        <ele>357.02</ele>
        <time>2017-10-10T12:01:18Z</time>
      </trkpt>
      <trkpt lat="44.45035" lon="4.15494">
        <ele>358.29</ele>
        <time>2017-10-10T12:01:26Z</time>
      </trkpt>
      <trkpt lat="44.45026" lon="4.15516">
        <ele>357.39</ele>
        <time>2017-10-10T12:02:11Z</time>
      </trkpt>
      <trkpt lat="44.45035" lon="4.15539">
        <ele>357.45</ele>
        <time>2017-10-10T12:02:21Z</time>
      </trkpt>
      <trkpt lat="44.45037" lon="4.15566">
        <ele>359.14</ele>
        <time>2017-10-10T12:02:31Z</time>
      </trkpt>
      <trkpt lat="44.4503" lon="4.1559">
        <ele>353.75</ele>
        <time>2017-10-10T12:02:58Z</time>
      </trkpt>
      <trkpt lat="44.45025" lon="4.15617">
        <ele>355.6</ele>
        <time>2017-10-10T12:03:05Z</time>
      </trkpt>
      <trkpt lat="44.45012" lon="4.15639">
        <ele>357.68</ele>
        <time>2017-10-10T12:03:44Z</time>
      </trkpt>
      <trkpt lat="44.44994" lon="4.15647">
        <ele>358.01</ele>
        <time>2017-10-10T12:03:57Z</time>
      </trkpt>
      <trkpt lat="44.44977" lon="4.1566">
        <ele>359.72</ele>
        <time>2017-10-10T12:04:08Z</time>
      </trkpt>
      <trkpt lat="44.4496" lon="4.15675">
        <ele>359.68</ele>
        <time>2017-10-10T12:04:17Z</time>
      </trkpt>
      <trkpt lat="44.44955" lon="4.157">
        <ele>353.83</ele>
        <time>2017-10-10T12:04:41Z</time>
      </trkpt>
      <trkpt lat="44.4495" lon="4.15725">
        <ele>351.65</ele>
        <time>2017-10-10T12:05:16Z</time>
      </trkpt>
      <trkpt lat="44.44947" lon="4.15751">
        <ele>350.6</ele>
        <time>2017-10-10T12:05:38Z</time>
      </trkpt>
      <trkpt lat="44.44945" lon="4.15776">
        <ele>351.63</ele>
        <time>2017-10-10T12:06:00Z</time>
      </trkpt>
      <trkpt lat="44.44958" lon="4.15796">
        <ele>355.6</ele>
        <time>2017-10-10T12:06:31Z</time>
      </trkpt>
      <trkpt lat="44.44972" lon="4.15812">
        <ele>355.76</ele>
        <time>2017-10-10T12:07:15Z</time>
      </trkpt>
      <trkpt lat="44.44989" lon="4.15824">
        <ele>357.29</ele>
        <time>2017-10-10T12:07:28Z</time>
      </trkpt>
      <trkpt lat="44.45002" lon="4.15841">
        <ele>355.6</ele>
        <time>2017-10-10T12:07:59Z</time>
      </trkpt>
      <trkpt lat="44.45011" lon="4.15863">
        <ele>356.71</ele>
        <time>2017-10-10T12:08:09Z</time>
      </trkpt>
      <trkpt lat="44.45031" lon="4.15864">
        <ele>356.69</ele>
        <time>2017-10-10T12:08:19Z</time>
      </trkpt>
      <trkpt lat="44.45032" lon="4.1589">
        <ele>352.45</ele>
        <time>2017-10-10T12:09:03Z</time>
      </trkpt>
      <trkpt lat="44.45048" lon="4.15904">
        <ele>347.38</ele>
        <time>2017-10-10T12:09:56Z</time>
      </trkpt>
      <trkpt lat="44.45048" lon="4.15929">
        <ele>345.39</ele>
        <time>2017-10-10T12:10:38Z</time>
      </trkpt>
      <trkpt lat="44.45061" lon="4.15947">
        <ele>345.71</ele>
        <time>2017-10-10T12:10:51Z</time>
      </trkpt>
      <trkpt lat="44.45079" lon="4.15939">
        <ele>352.88</ele>
        <time>2017-10-10T12:12:53Z</time>
      </trkpt>
      <trkpt lat="44.45068" lon="4.15917">
        <ele>351.78</ele>
        <time>2017-10-10T12:13:24Z</time>
      </trkpt>
      <trkpt lat="44.4505" lon="4.15909">
        <ele>349.39</ele>
        <time>2017-10-10T12:13:43Z</time>
      </trkpt>
      <trkpt lat="44.45038" lon="4.1589">
        <ele>345.93</ele>
        <time>2017-10-10T12:14:27Z</time>
      </trkpt>
      <trkpt lat="44.45026" lon="4.15867">
        <ele>343.36</ele>
        <time>2017-10-10T12:15:29Z</time>
      </trkpt>
      <trkpt lat="44.45014" lon="4.15842">
        <ele>350.39</ele>
        <time>2017-10-10T12:15:36Z</time>
      </trkpt>
      <trkpt lat="44.45" lon="4.15827">
        <ele>348.56</ele>
        <time>2017-10-10T12:15:57Z</time>
      </trkpt>
      <trkpt lat="44.44981" lon="4.15822">
        <ele>348.99</ele>
        <time>2017-10-10T12:16:18Z</time>
      </trkpt>
      <trkpt lat="44.44968" lon="4.15802">
        <ele>347.96</ele>
        <time>2017-10-10T12:16:26Z</time>
      </trkpt>
      <trkpt lat="44.44955" lon="4.15784">
        <ele>348.6</ele>
        <time>2017-10-10T12:16:54Z</time>
      </trkpt>
      <trkpt lat="44.44937" lon="4.15785">
        <ele>344.97</ele>
        <time>2017-10-10T12:17:28Z</time>
      </trkpt>
      <trkpt lat="44.44921" lon="4.15798">
        <ele>343.66</ele>
        <time>2017-10-10T12:18:16Z</time>
      </trkpt>
      <trkpt lat="44.44909" lon="4.15819">
        <ele>345.28</ele>
        <time>2017-10-10T12:18:32Z</time>
      </trkpt>
      <trkpt lat="44.44895" lon="4.15836">
        <ele>340.99</ele>
        <time>2017-10-10T12:19:05Z</time>
      </trkpt>
      <trkpt lat="44.4488" lon="4.15853">
        <ele>331.34</ele>
        <time>2017-10-10T12:19:34Z</time>
      </trkpt>
      <trkpt lat="44.44863" lon="4.15868">
        <ele>335.52</ele>
        <time>2017-10-10T12:19:51Z</time>
      </trkpt>
      <trkpt lat="44.44848" lon="4.15883">
        <ele>333.3</ele>
        <time>2017-10-10T12:20:04Z</time>
      </trkpt>
      <trkpt lat="44.44833" lon="4.15896">
        <ele>330.5</ele>
        <time>2017-10-10T12:20:30Z</time>
      </trkpt>
      <trkpt lat="44.44819" lon="4.15913">
        <ele>330.08</ele>
        <time>2017-10-10T12:20:46Z</time>
      </trkpt>
      <trkpt lat="44.44806" lon="4.1593">
        <ele>325.07</ele>
        <time>2017-10-10T12:21:14Z</time>
      </trkpt>
      <trkpt lat="44.44793" lon="4.1595">
        <ele>322.69</ele>
        <time>2017-10-10T12:21:42Z</time>
      </trkpt>
      <trkpt lat="44.4478" lon="4.15968">
        <ele>323.61</ele>
        <time>2017-10-10T12:22:03Z</time>
      </trkpt>
      <trkpt lat="44.44765" lon="4.15983">
        <ele>328.69</ele>
        <time>2017-10-10T12:22:34Z</time>
      </trkpt>
      <trkpt lat="44.44749" lon="4.15993">
        <ele>323.78</ele>
        <time>2017-10-10T12:22:51Z</time>
      </trkpt>
      <trkpt lat="44.44733" lon="4.16005">
        <ele>319.73</ele>
        <time>2017-10-10T12:23:16Z</time>
      </trkpt>
      <trkpt lat="44.44714" lon="4.16001">
        <ele>321.59</ele>
        <time>2017-10-10T12:23:25Z</time>
      </trkpt>
      <trkpt lat="44.44695" lon="4.15995">
        <ele>312.93</ele>
        <time>2017-10-10T12:23:43Z</time>
      </trkpt>
      <trkpt lat="44.44677" lon="4.15987">
        <ele>307.71</ele>
        <time>2017-10-10T12:24:06Z</time>
      </trkpt>
      <trkpt lat="44.44657" lon="4.15987">
        <ele>308.66</ele>
        <time>2017-10-10T12:24:24Z</time>
      </trkpt>
      <trkpt lat="44.44638" lon="4.15985">
        <ele>308.97</ele>
        <time>2017-10-10T12:24:43Z</time>
      </trkpt>
      <trkpt lat="44.44622" lon="4.15998">
        <ele>308.3</ele>
        <time>2017-10-10T12:25:00Z</time>
      </trkpt>
      <trkpt lat="44.44605" lon="4.16009">
        <ele>304.31</ele>
        <time>2017-10-10T12:25:18Z</time>
      </trkpt>
      <trkpt lat="44.44586" lon="4.16009">
        <ele>300.3</ele>
        <time>2017-10-10T12:25:41Z</time>
      </trkpt>
      <trkpt lat="44.44567" lon="4.16006">
        <ele>301.98</ele>
        <time>2017-10-10T12:25:57Z</time>
      </trkpt>
      <trkpt lat="44.44548" lon="4.16">
        <ele>297.38</ele>
        <time>2017-10-10T12:26:17Z</time>
      </trkpt>
      <trkpt lat="44.44533" lon="4.15986">
        <ele>296.41</ele>
        <time>2017-10-10T12:26:31Z</time>
      </trkpt>
      <trkpt lat="44.44549" lon="4.15999">
        <ele>296.67</ele>
        <time>2017-10-10T12:27:42Z</time>
      </trkpt>
      <trkpt lat="44.44569" lon="4.16002">
        <ele>297.63</ele>
        <time>2017-10-10T12:28:01Z</time>
      </trkpt>
      <trkpt lat="44.44587" lon="4.16004">
        <ele>298.75</ele>
        <time>2017-10-10T12:28:19Z</time>
      </trkpt>
      <trkpt lat="44.44606" lon="4.1601">
        <ele>299.63</ele>
        <time>2017-10-10T12:28:39Z</time>
      </trkpt>
      <trkpt lat="44.44623" lon="4.16003">
        <ele>300.7</ele>
        <time>2017-10-10T12:28:57Z</time>
      </trkpt>
      <trkpt lat="44.44642" lon="4.15995">
        <ele>302.6</ele>
        <time>2017-10-10T12:29:17Z</time>
      </trkpt>
      <trkpt lat="44.44659" lon="4.15989">
        <ele>303.51</ele>
        <time>2017-10-10T12:29:38Z</time>
      </trkpt>
      <trkpt lat="44.44674" lon="4.15973">
        <ele>306.66</ele>
        <time>2017-10-10T12:29:56Z</time>
      </trkpt>
      <trkpt lat="44.44685" lon="4.15953">
        <ele>307.62</ele>
        <time>2017-10-10T12:30:10Z</time>
      </trkpt>
      <trkpt lat="44.44699" lon="4.15935">
        <ele>309.94</ele>
        <time>2017-10-10T12:30:28Z</time>
      </trkpt>
      <trkpt lat="44.44709" lon="4.15912">
        <ele>312.3</ele>
        <time>2017-10-10T12:30:47Z</time>
      </trkpt>
      <trkpt lat="44.4472" lon="4.15891">
        <ele>318.68</ele>
        <time>2017-10-10T12:31:09Z</time>
      </trkpt>
      <trkpt lat="44.44724" lon="4.15865">
        <ele>320.85</ele>
        <time>2017-10-10T12:31:25Z</time>
      </trkpt>
      <trkpt lat="44.4472" lon="4.15838">
        <ele>317.79</ele>
        <time>2017-10-10T12:31:43Z</time>
      </trkpt>
      <trkpt lat="44.44723" lon="4.15811">
        <ele>319.6</ele>
        <time>2017-10-10T12:31:58Z</time>
      </trkpt>
      <trkpt lat="44.44723" lon="4.15784">
        <ele>316.8</ele>
        <time>2017-10-10T12:32:17Z</time>
      </trkpt>
      <trkpt lat="44.44732" lon="4.15761">
        <ele>320.12</ele>
        <time>2017-10-10T12:32:35Z</time>
      </trkpt>
      <trkpt lat="44.44743" lon="4.15738">
        <ele>327.56</ele>
        <time>2017-10-10T12:32:53Z</time>
      </trkpt>
      <trkpt lat="44.44756" lon="4.15718">
        <ele>325.36</ele>
        <time>2017-10-10T12:33:12Z</time>
      </trkpt>
      <trkpt lat="44.44767" lon="4.15697">
        <ele>323.6</ele>
        <time>2017-10-10T12:33:30Z</time>
      </trkpt>
      <trkpt lat="44.44775" lon="4.15673">
        <ele>323.89</ele>
        <time>2017-10-10T12:33:42Z</time>
      </trkpt>
      <trkpt lat="44.44786" lon="4.15651">
        <ele>327.54</ele>
        <time>2017-10-10T12:34:02Z</time>
      </trkpt>
      <trkpt lat="44.44801" lon="4.15635">
        <ele>326.69</ele>
        <time>2017-10-10T12:34:20Z</time>
      </trkpt>
      <trkpt lat="44.44815" lon="4.15618">
        <ele>328.88</ele>
        <time>2017-10-10T12:34:34Z</time>
      </trkpt>
      <trkpt lat="44.44822" lon="4.15595">
        <ele>325.38</ele>
        <time>2017-10-10T12:34:51Z</time>
      </trkpt>
      <trkpt lat="44.44829" lon="4.15571">
        <ele>326.22</ele>
        <time>2017-10-10T12:35:08Z</time>
      </trkpt>
      <trkpt lat="44.44835" lon="4.15546">
        <ele>326.48</ele>
        <time>2017-10-10T12:35:22Z</time>
      </trkpt>
      <trkpt lat="44.44845" lon="4.15523">
        <ele>327.99</ele>
        <time>2017-10-10T12:35:46Z</time>
      </trkpt>
      <trkpt lat="44.44862" lon="4.15514">
        <ele>327.97</ele>
        <time>2017-10-10T12:36:01Z</time>
      </trkpt>
      <trkpt lat="44.44867" lon="4.15487">
        <ele>334.36</ele>
        <time>2017-10-10T12:36:18Z</time>
      </trkpt>
      <trkpt lat="44.44874" lon="4.15462">
        <ele>337.14</ele>
        <time>2017-10-10T12:36:37Z</time>
      </trkpt>
      <trkpt lat="44.4488" lon="4.15439">
        <ele>342.08</ele>
        <time>2017-10-10T12:37:01Z</time>
      </trkpt>
      <trkpt lat="44.44884" lon="4.15412">
        <ele>350.8</ele>
        <time>2017-10-10T12:43:50Z</time>
      </trkpt>
      <trkpt lat="44.44874" lon="4.1539">
        <ele>349.47</ele>
        <time>2017-10-10T12:44:03Z</time>
      </trkpt>
      <trkpt lat="44.44861" lon="4.15372">
        <ele>348.78</ele>
        <time>2017-10-10T12:44:21Z</time>
      </trkpt>
      <trkpt lat="44.44847" lon="4.15356">
        <ele>349.69</ele>
        <time>2017-10-10T12:44:41Z</time>
      </trkpt>
      <trkpt lat="44.44839" lon="4.15332">
        <ele>350.08</ele>
        <time>2017-10-10T12:45:20Z</time>
      </trkpt>
      <trkpt lat="44.44854" lon="4.15316">
        <ele>347.69</ele>
        <time>2017-10-10T12:46:03Z</time>
      </trkpt>
      <trkpt lat="44.44872" lon="4.15311">
        <ele>350.62</ele>
        <time>2017-10-10T12:46:21Z</time>
      </trkpt>
      <trkpt lat="44.4489" lon="4.15313">
        <ele>353.69</ele>
        <time>2017-10-10T12:46:40Z</time>
      </trkpt>
      <trkpt lat="44.44908" lon="4.15317">
        <ele>351.69</ele>
        <time>2017-10-10T12:46:56Z</time>
      </trkpt>
      <trkpt lat="44.44927" lon="4.15317">
        <ele>354.63</ele>
        <time>2017-10-10T12:47:19Z</time>
      </trkpt>
      <trkpt lat="44.44945" lon="4.15313">
        <ele>356.26</ele>
        <time>2017-10-10T12:47:34Z</time>
      </trkpt>
      <trkpt lat="44.44961" lon="4.15299">
        <ele>359.57</ele>
        <time>2017-10-10T12:47:55Z</time>
      </trkpt>
      <trkpt lat="44.44978" lon="4.15288">
        <ele>360.71</ele>
        <time>2017-10-10T12:48:27Z</time>
      </trkpt>
      <trkpt lat="44.44996" lon="4.15281">
        <ele>363.45</ele>
        <time>2017-10-10T12:48:41Z</time>
      </trkpt>
      <trkpt lat="44.45014" lon="4.15271">
        <ele>362.4</ele>
        <time>2017-10-10T12:49:00Z</time>
      </trkpt>
      <trkpt lat="44.45025" lon="4.1525">
        <ele>362.4</ele>
        <time>2017-10-10T12:49:29Z</time>
      </trkpt>
      <trkpt lat="44.45026" lon="4.15224">
        <ele>368.38</ele>
        <time>2017-10-10T12:49:47Z</time>
      </trkpt>
      <trkpt lat="44.45024" lon="4.15197">
        <ele>369.84</ele>
        <time>2017-10-10T12:50:15Z</time>
      </trkpt>
      <trkpt lat="44.45021" lon="4.15171">
        <ele>372.69</ele>
        <time>2017-10-10T12:50:50Z</time>
      </trkpt>
      <trkpt lat="44.45016" lon="4.15146">
        <ele>372.31</ele>
        <time>2017-10-10T12:51:12Z</time>
      </trkpt>
      <trkpt lat="44.45001" lon="4.15129">
        <ele>368.71</ele>
        <time>2017-10-10T12:51:30Z</time>
      </trkpt>
      <trkpt lat="44.44989" lon="4.15107">
        <ele>364.81</ele>
        <time>2017-10-10T12:51:50Z</time>
      </trkpt>
      <trkpt lat="44.44978" lon="4.15087">
        <ele>363.6</ele>
        <time>2017-10-10T12:52:10Z</time>
      </trkpt>
      <trkpt lat="44.44968" lon="4.15065">
        <ele>365.69</ele>
        <time>2017-10-10T12:52:31Z</time>
      </trkpt>
      <trkpt lat="44.44953" lon="4.15049">
        <ele>366.67</ele>
        <time>2017-10-10T12:52:45Z</time>
      </trkpt>
      <trkpt lat="44.44937" lon="4.15036">
        <ele>363.59</ele>
        <time>2017-10-10T12:53:01Z</time>
      </trkpt>
      <trkpt lat="44.44929" lon="4.15014">
        <ele>365.73</ele>
        <time>2017-10-10T12:53:26Z</time>
      </trkpt>
      <trkpt lat="44.44924" lon="4.14989">
        <ele>360.84</ele>
        <time>2017-10-10T12:55:12Z</time>
      </trkpt>
      <trkpt lat="44.44918" lon="4.14964">
        <ele>356.24</ele>
        <time>2017-10-10T12:55:43Z</time>
      </trkpt>
      <trkpt lat="44.44909" lon="4.14942">
        <ele>351.69</ele>
        <time>2017-10-10T12:56:43Z</time>
      </trkpt>
      <trkpt lat="44.44892" lon="4.14935">
        <ele>360.78</ele>
        <time>2017-10-10T12:57:09Z</time>
      </trkpt>
      <trkpt lat="44.44873" lon="4.14926">
        <ele>354.2</ele>
        <time>2017-10-10T13:00:10Z</time>
      </trkpt>
      <trkpt lat="44.44858" lon="4.14912">
        <ele>348.66</ele>
        <time>2017-10-10T13:00:37Z</time>
      </trkpt>
      <trkpt lat="44.4484" lon="4.14903">
        <ele>351.03</ele>
        <time>2017-10-10T13:01:11Z</time>
      </trkpt>
      <trkpt lat="44.44828" lon="4.14884">
        <ele>349.78</ele>
        <time>2017-10-10T13:01:36Z</time>
      </trkpt>
      <trkpt lat="44.44812" lon="4.14872">
        <ele>345.87</ele>
        <time>2017-10-10T13:01:48Z</time>
      </trkpt>
      <trkpt lat="44.44796" lon="4.14859">
        <ele>351.49</ele>
        <time>2017-10-10T13:02:46Z</time>
      </trkpt>
      <trkpt lat="44.44781" lon="4.14843">
        <ele>351.39</ele>
        <time>2017-10-10T13:03:06Z</time>
      </trkpt>
      <trkpt lat="44.44767" lon="4.14824">
        <ele>349.63</ele>
        <time>2017-10-10T13:03:20Z</time>
      </trkpt>
      <trkpt lat="44.44764" lon="4.14799">
        <ele>346.36</ele>
        <time>2017-10-10T13:03:43Z</time>
      </trkpt>
      <trkpt lat="44.44763" lon="4.14773">
        <ele>341.69</ele>
        <time>2017-10-10T13:04:26Z</time>
      </trkpt>
      <trkpt lat="44.44757" lon="4.14749">
        <ele>340.95</ele>
        <time>2017-10-10T13:04:46Z</time>
      </trkpt>
      <trkpt lat="44.44752" lon="4.14724">
        <ele>339.69</ele>
        <time>2017-10-10T13:05:41Z</time>
      </trkpt>
      <trkpt lat="44.44747" lon="4.14698">
        <ele>337.92</ele>
        <time>2017-10-10T13:06:18Z</time>
      </trkpt>
      <trkpt lat="44.44745" lon="4.14673">
        <ele>334.39</ele>
        <time>2017-10-10T13:06:38Z</time>
      </trkpt>
      <trkpt lat="44.44732" lon="4.14694">
        <ele>326.27</ele>
        <time>2017-10-10T13:07:16Z</time>
      </trkpt>
      <trkpt lat="44.44717" lon="4.14708">
        <ele>327.9</ele>
        <time>2017-10-10T13:07:30Z</time>
      </trkpt>
      <trkpt lat="44.447" lon="4.14717">
        <ele>329.31</ele>
        <time>2017-10-10T13:08:16Z</time>
      </trkpt>
      <trkpt lat="44.44692" lon="4.1474">
        <ele>337.38</ele>
        <time>2017-10-10T13:08:33Z</time>
      </trkpt>
      <trkpt lat="44.44677" lon="4.14754">
        <ele>342.96</ele>
        <time>2017-10-10T13:08:53Z</time>
      </trkpt>
      <trkpt lat="44.44671" lon="4.14778">
        <ele>345.6</ele>
        <time>2017-10-10T13:09:20Z</time>
      </trkpt>
      <trkpt lat="44.44667" lon="4.14803">
        <ele>349.62</ele>
        <time>2017-10-10T13:09:39Z</time>
      </trkpt>
      <trkpt lat="44.44654" lon="4.14822">
        <ele>353.29</ele>
        <time>2017-10-10T13:10:01Z</time>
      </trkpt>
      <trkpt lat="44.4464" lon="4.1484">
        <ele>356.11</ele>
        <time>2017-10-10T13:10:25Z</time>
      </trkpt>
      <trkpt lat="44.44626" lon="4.14859">
        <ele>355.47</ele>
        <time>2017-10-10T13:10:59Z</time>
      </trkpt>
      <trkpt lat="44.44615" lon="4.14879">
        <ele>351.92</ele>
        <time>2017-10-10T13:11:25Z</time>
      </trkpt>
      <trkpt lat="44.44608" lon="4.14902">
        <ele>357.65</ele>
        <time>2017-10-10T13:11:38Z</time>
      </trkpt>
      <trkpt lat="44.44593" lon="4.14919">
        <ele>355.98</ele>
        <time>2017-10-10T13:11:53Z</time>
      </trkpt>
      <trkpt lat="44.44575" lon="4.14923">
        <ele>359.68</ele>
        <time>2017-10-10T13:12:22Z</time>
      </trkpt>
      <trkpt lat="44.44557" lon="4.1493">
        <ele>357.37</ele>
        <time>2017-10-10T13:12:40Z</time>
      </trkpt>
      <trkpt lat="44.44545" lon="4.1495">
        <ele>358.36</ele>
        <time>2017-10-10T13:13:01Z</time>
      </trkpt>
      <trkpt lat="44.44531" lon="4.14968">
        <ele>363.95</ele>
        <time>2017-10-10T13:13:19Z</time>
      </trkpt>
      <trkpt lat="44.44527" lon="4.14987">
        <ele>357.69</ele>
        <time>2017-10-10T13:17:39Z</time>
      </trkpt>
      <trkpt lat="44.44516" lon="4.15008">
        <ele>358.69</ele>
        <time>2017-10-10T13:20:37Z</time>
      </trkpt>
      <trkpt lat="44.44499" lon="4.1502">
        <ele>360.96</ele>
        <time>2017-10-10T13:20:54Z</time>
      </trkpt>
      <trkpt lat="44.44488" lon="4.15039">
        <ele>363.97</ele>
        <time>2017-10-10T13:21:20Z</time>
      </trkpt>
      <trkpt lat="44.44469" lon="4.15036">
        <ele>367.86</ele>
        <time>2017-10-10T13:21:45Z</time>
      </trkpt>
      <trkpt lat="44.44451" lon="4.15043">
        <ele>365.25</ele>
        <time>2017-10-10T13:22:06Z</time>
      </trkpt>
      <trkpt lat="44.44436" lon="4.15056">
        <ele>371.38</ele>
        <time>2017-10-10T13:22:30Z</time>
      </trkpt>
      <trkpt lat="44.44419" lon="4.15065">
        <ele>374.48</ele>
        <time>2017-10-10T13:22:50Z</time>
      </trkpt>
      <trkpt lat="44.44403" lon="4.15079">
        <ele>369.69</ele>
        <time>2017-10-10T13:23:21Z</time>
      </trkpt>
      <trkpt lat="44.44386" lon="4.15088">
        <ele>374.44</ele>
        <time>2017-10-10T13:23:47Z</time>
      </trkpt>
      <trkpt lat="44.44366" lon="4.15091">
        <ele>373.42</ele>
        <time>2017-10-10T13:24:12Z</time>
      </trkpt>
      <trkpt lat="44.44348" lon="4.15084">
        <ele>375.09</ele>
        <time>2017-10-10T13:24:31Z</time>
      </trkpt>
      <trkpt lat="44.4433" lon="4.15076">
        <ele>372.14</ele>
        <time>2017-10-10T13:24:54Z</time>
      </trkpt>
      <trkpt lat="44.44316" lon="4.15059">
        <ele>374.98</ele>
        <time>2017-10-10T13:25:25Z</time>
      </trkpt>
      <trkpt lat="44.44302" lon="4.15042">
        <ele>380.58</ele>
        <time>2017-10-10T13:25:36Z</time>
      </trkpt>
      <trkpt lat="44.44289" lon="4.15021">
        <ele>378.08</ele>
        <time>2017-10-10T13:26:11Z</time>
      </trkpt>
      <trkpt lat="44.4428" lon="4.14998">
        <ele>380.19</ele>
        <time>2017-10-10T13:26:26Z</time>
      </trkpt>
      <trkpt lat="44.4428" lon="4.14972">
        <ele>375.77</ele>
        <time>2017-10-10T13:26:56Z</time>
      </trkpt>
      <trkpt lat="44.44285" lon="4.14947">
        <ele>378.6</ele>
        <time>2017-10-10T13:28:05Z</time>
      </trkpt>
      <trkpt lat="44.443" lon="4.14932">
        <ele>383.05</ele>
        <time>2017-10-10T13:28:24Z</time>
      </trkpt>
      <trkpt lat="44.44315" lon="4.14917">
        <ele>386.62</ele>
        <time>2017-10-10T13:28:41Z</time>
      </trkpt>
      <trkpt lat="44.44327" lon="4.14898">
        <ele>383.83</ele>
        <time>2017-10-10T13:29:00Z</time>
      </trkpt>
      <trkpt lat="44.44344" lon="4.14887">
        <ele>382.66</ele>
        <time>2017-10-10T13:29:18Z</time>
      </trkpt>
      <trkpt lat="44.44357" lon="4.14868">
        <ele>387.52</ele>
        <time>2017-10-10T13:29:37Z</time>
      </trkpt>
      <trkpt lat="44.44367" lon="4.14846">
        <ele>380.64</ele>
        <time>2017-10-10T13:30:02Z</time>
      </trkpt>
      <trkpt lat="44.44381" lon="4.14829">
        <ele>382.99</ele>
        <time>2017-10-10T13:30:22Z</time>
      </trkpt>
      <trkpt lat="44.44392" lon="4.14809">
        <ele>386.39</ele>
        <time>2017-10-10T13:30:41Z</time>
      </trkpt>
      <trkpt lat="44.44405" lon="4.14789">
        <ele>393.54</ele>
        <time>2017-10-10T13:31:02Z</time>
      </trkpt>
      <trkpt lat="44.44414" lon="4.14765">
        <ele>391.69</ele>
        <time>2017-10-10T13:31:18Z</time>
      </trkpt>
      <trkpt lat="44.44426" lon="4.14746">
        <ele>390.5</ele>
        <time>2017-10-10T13:31:41Z</time>
      </trkpt>
      <trkpt lat="44.44438" lon="4.14727">
        <ele>397.69</ele>
        <time>2017-10-10T13:32:01Z</time>
      </trkpt>
      <trkpt lat="44.44444" lon="4.14701">
        <ele>396.84</ele>
        <time>2017-10-10T13:32:34Z</time>
      </trkpt>
      <trkpt lat="44.44452" lon="4.14678">
        <ele>396.08</ele>
        <time>2017-10-10T13:32:49Z</time>
      </trkpt>
      <trkpt lat="44.44464" lon="4.14657">
        <ele>399.66</ele>
        <time>2017-10-10T13:33:01Z</time>
      </trkpt>
      <trkpt lat="44.44472" lon="4.14633">
        <ele>402.35</ele>
        <time>2017-10-10T13:33:18Z</time>
      </trkpt>
      <trkpt lat="44.44478" lon="4.1461">
        <ele>397.93</ele>
        <time>2017-10-10T13:33:40Z</time>
      </trkpt>
      <trkpt lat="44.44494" lon="4.14597">
        <ele>403.37</ele>
        <time>2017-10-10T13:33:56Z</time>
      </trkpt>
      <trkpt lat="44.44509" lon="4.14581">
        <ele>405.7</ele>
        <time>2017-10-10T13:34:10Z</time>
      </trkpt>
      <trkpt lat="44.44513" lon="4.14555">
        <ele>405.98</ele>
        <time>2017-10-10T13:35:14Z</time>
      </trkpt>
      <trkpt lat="44.4452" lon="4.1453">
        <ele>402.51</ele>
        <time>2017-10-10T13:36:24Z</time>
      </trkpt>
      <trkpt lat="44.44526" lon="4.14505">
        <ele>398.09</ele>
        <time>2017-10-10T13:36:50Z</time>
      </trkpt>
      <trkpt lat="44.44528" lon="4.1448">
        <ele>400.4</ele>
        <time>2017-10-10T13:37:09Z</time>
      </trkpt>
      <trkpt lat="44.44534" lon="4.14455">
        <ele>403.16</ele>
        <time>2017-10-10T13:37:26Z</time>
      </trkpt>
      <trkpt lat="44.4454" lon="4.1443">
        <ele>403.39</ele>
        <time>2017-10-10T13:37:38Z</time>
      </trkpt>
      <trkpt lat="44.44542" lon="4.14405">
        <ele>406.66</ele>
        <time>2017-10-10T13:37:50Z</time>
      </trkpt>
      <trkpt lat="44.44544" lon="4.1438">
        <ele>404.67</ele>
        <time>2017-10-10T13:38:05Z</time>
      </trkpt>
      <trkpt lat="44.44547" lon="4.14353">
        <ele>406.8</ele>
        <time>2017-10-10T13:38:23Z</time>
      </trkpt>
      <trkpt lat="44.44554" lon="4.1433">
        <ele>410.48</ele>
        <time>2017-10-10T13:38:34Z</time>
      </trkpt>
      <trkpt lat="44.44567" lon="4.14312">
        <ele>407.42</ele>
        <time>2017-10-10T13:38:52Z</time>
      </trkpt>
      <trkpt lat="44.44584" lon="4.143">
        <ele>408.71</ele>
        <time>2017-10-10T13:40:12Z</time>
      </trkpt>
      <trkpt lat="44.44598" lon="4.14285">
        <ele>403.75</ele>
        <time>2017-10-10T13:40:32Z</time>
      </trkpt>
      <trkpt lat="44.44614" lon="4.14271">
        <ele>399.66</ele>
        <time>2017-10-10T13:40:49Z</time>
      </trkpt>
      <trkpt lat="44.44629" lon="4.14256">
        <ele>398.95</ele>
        <time>2017-10-10T13:41:06Z</time>
      </trkpt>
      <trkpt lat="44.44645" lon="4.14244">
        <ele>401.39</ele>
        <time>2017-10-10T13:41:19Z</time>
      </trkpt>
      <trkpt lat="44.44661" lon="4.14231">
        <ele>393.69</ele>
        <time>2017-10-10T13:41:36Z</time>
      </trkpt>
      <trkpt lat="44.44679" lon="4.14224">
        <ele>397.6</ele>
        <time>2017-10-10T13:41:52Z</time>
      </trkpt>
      <trkpt lat="44.44698" lon="4.14215">
        <ele>391.53</ele>
        <time>2017-10-10T13:42:08Z</time>
      </trkpt>
      <trkpt lat="44.44716" lon="4.1421">
        <ele>391.81</ele>
        <time>2017-10-10T13:42:28Z</time>
      </trkpt>
      <trkpt lat="44.44735" lon="4.14207">
        <ele>390.24</ele>
        <time>2017-10-10T13:42:42Z</time>
      </trkpt>
      <trkpt lat="44.44754" lon="4.14208">
        <ele>389.99</ele>
        <time>2017-10-10T13:42:57Z</time>
      </trkpt>
      <trkpt lat="44.44774" lon="4.142">
        <ele>393.44</ele>
        <time>2017-10-10T13:43:14Z</time>
      </trkpt>
      <trkpt lat="44.44792" lon="4.142">
        <ele>392.75</ele>
        <time>2017-10-10T13:43:26Z</time>
      </trkpt>
      <trkpt lat="44.44811" lon="4.14201">
        <ele>389.33</ele>
        <time>2017-10-10T13:43:48Z</time>
      </trkpt>
      <trkpt lat="44.44829" lon="4.14201">
        <ele>390.4</ele>
        <time>2017-10-10T13:44:04Z</time>
      </trkpt>
      <trkpt lat="44.44844" lon="4.14215">
        <ele>390.7</ele>
        <time>2017-10-10T13:46:07Z</time>
      </trkpt>
      <trkpt lat="44.44862" lon="4.1422">
        <ele>389.9</ele>
        <time>2017-10-10T13:46:28Z</time>
      </trkpt>
      <trkpt lat="44.4488" lon="4.14229">
        <ele>390.08</ele>
        <time>2017-10-10T13:46:42Z</time>
      </trkpt>
      <trkpt lat="44.44898" lon="4.14241">
        <ele>390.58</ele>
        <time>2017-10-10T13:47:01Z</time>
      </trkpt>
      <trkpt lat="44.44917" lon="4.14251">
        <ele>390.39</ele>
        <time>2017-10-10T13:47:14Z</time>
      </trkpt>
      <trkpt lat="44.44932" lon="4.14265">
        <ele>394.69</ele>
        <time>2017-10-10T13:47:36Z</time>
      </trkpt>
      <trkpt lat="44.44948" lon="4.14278">
        <ele>396.68</ele>
        <time>2017-10-10T13:47:47Z</time>
      </trkpt>
      <trkpt lat="44.44965" lon="4.14284">
        <ele>396.75</ele>
        <time>2017-10-10T13:48:04Z</time>
      </trkpt>
      <trkpt lat="44.44983" lon="4.14289">
        <ele>400.65</ele>
        <time>2017-10-10T13:48:29Z</time>
      </trkpt>
      <trkpt lat="44.45" lon="4.14303">
        <ele>400.79</ele>
        <time>2017-10-10T13:48:49Z</time>
      </trkpt>
      <trkpt lat="44.45017" lon="4.14311">
        <ele>394.72</ele>
        <time>2017-10-10T13:49:06Z</time>
      </trkpt>
      <trkpt lat="44.45036" lon="4.14315">
        <ele>397.65</ele>
        <time>2017-10-10T13:49:43Z</time>
      </trkpt>
      <trkpt lat="44.45054" lon="4.14324">
        <ele>403.35</ele>
        <time>2017-10-10T13:50:14Z</time>
      </trkpt>
      <trkpt lat="44.45072" lon="4.14327">
        <ele>400.48</ele>
        <time>2017-10-10T13:50:34Z</time>
      </trkpt>
      <trkpt lat="44.45091" lon="4.14325">
        <ele>398.7</ele>
        <time>2017-10-10T13:51:11Z</time>
      </trkpt>
      <trkpt lat="44.4511" lon="4.14325">
        <ele>400.64</ele>
        <time>2017-10-10T13:51:26Z</time>
      </trkpt>
      <trkpt lat="44.45128" lon="4.14321">
        <ele>400.39</ele>
        <time>2017-10-10T13:51:42Z</time>
      </trkpt>
      <trkpt lat="44.45146" lon="4.14326">
        <ele>411.95</ele>
        <time>2017-10-10T13:52:01Z</time>
      </trkpt>
      <trkpt lat="44.45164" lon="4.14325">
        <ele>412.8</ele>
        <time>2017-10-10T13:52:14Z</time>
      </trkpt>
      <trkpt lat="44.45181" lon="4.14316">
        <ele>414.74</ele>
        <time>2017-10-10T13:52:35Z</time>
      </trkpt>
      <trkpt lat="44.45199" lon="4.14306">
        <ele>415.93</ele>
        <time>2017-10-10T13:52:55Z</time>
      </trkpt>
      <trkpt lat="44.45215" lon="4.14293">
        <ele>406.37</ele>
        <time>2017-10-10T13:53:11Z</time>
      </trkpt>
      <trkpt lat="44.4523" lon="4.14277">
        <ele>410.58</ele>
        <time>2017-10-10T13:53:31Z</time>
      </trkpt>
      <trkpt lat="44.45245" lon="4.14261">
        <ele>414.78</ele>
        <time>2017-10-10T13:53:46Z</time>
      </trkpt>
      <trkpt lat="44.45255" lon="4.14239">
        <ele>417.39</ele>
        <time>2017-10-10T13:54:06Z</time>
      </trkpt>
      <trkpt lat="44.45271" lon="4.14228">
        <ele>417.22</ele>
        <time>2017-10-10T13:54:21Z</time>
      </trkpt>
      <trkpt lat="44.45278" lon="4.14205">
        <ele>416.71</ele>
        <time>2017-10-10T13:54:40Z</time>
      </trkpt>
      <trkpt lat="44.45293" lon="4.14189">
        <ele>415.66</ele>
        <time>2017-10-10T13:55:01Z</time>
      </trkpt>
      <trkpt lat="44.45308" lon="4.14171">
        <ele>416.36</ele>
        <time>2017-10-10T13:55:14Z</time>
      </trkpt>
      <trkpt lat="44.45323" lon="4.14155">
        <ele>416.41</ele>
        <time>2017-10-10T13:55:33Z</time>
      </trkpt>
      <trkpt lat="44.45339" lon="4.14142">
        <ele>414.66</ele>
        <time>2017-10-10T13:55:56Z</time>
      </trkpt>
      <trkpt lat="44.45356" lon="4.14135">
        <ele>419.05</ele>
        <time>2017-10-10T13:56:11Z</time>
      </trkpt>
      <trkpt lat="44.45366" lon="4.14113">
        <ele>410.77</ele>
        <time>2017-10-10T13:56:28Z</time>
      </trkpt>
      <trkpt lat="44.45369" lon="4.14087">
        <ele>407.71</ele>
        <time>2017-10-10T13:56:50Z</time>
      </trkpt>
      <trkpt lat="44.45369" lon="4.14061">
        <ele>404.72</ele>
        <time>2017-10-10T13:57:06Z</time>
      </trkpt>
      <trkpt lat="44.45372" lon="4.14036">
        <ele>406.77</ele>
        <time>2017-10-10T13:58:31Z</time>
      </trkpt>
      <trkpt lat="44.4538" lon="4.14012">
        <ele>405.7</ele>
        <time>2017-10-10T14:00:49Z</time>
      </trkpt>
      <trkpt lat="44.45382" lon="4.13985">
        <ele>405.27</ele>
        <time>2017-10-10T14:01:04Z</time>
      </trkpt>
      <trkpt lat="44.45384" lon="4.1396">
        <ele>401.69</ele>
        <time>2017-10-10T14:01:26Z</time>
      </trkpt>
      <trkpt lat="44.45397" lon="4.13941">
        <ele>403.08</ele>
        <time>2017-10-10T14:01:53Z</time>
      </trkpt>
      <trkpt lat="44.45413" lon="4.13925">
        <ele>400.69</ele>
        <time>2017-10-10T14:02:15Z</time>
      </trkpt>
      <trkpt lat="44.45425" lon="4.13907">
        <ele>393.93</ele>
        <time>2017-10-10T14:02:45Z</time>
      </trkpt>
      <trkpt lat="44.45438" lon="4.13889">
        <ele>389.7</ele>
        <time>2017-10-10T14:03:17Z</time>
      </trkpt>
      <trkpt lat="44.45447" lon="4.13866">
        <ele>391.53</ele>
        <time>2017-10-10T14:03:44Z</time>
      </trkpt>
      <trkpt lat="44.45453" lon="4.13842">
        <ele>384.08</ele>
        <time>2017-10-10T14:04:22Z</time>
      </trkpt>
      <trkpt lat="44.45467" lon="4.13824">
        <ele>375.08</ele>
        <time>2017-10-10T14:04:39Z</time>
      </trkpt>
      <trkpt lat="44.45477" lon="4.13803">
        <ele>376.4</ele>
        <time>2017-10-10T14:05:05Z</time>
      </trkpt>
      <trkpt lat="44.45486" lon="4.13781">
        <ele>370.69</ele>
        <time>2017-10-10T14:05:36Z</time>
      </trkpt>
      <trkpt lat="44.4549" lon="4.13753">
        <ele>374.74</ele>
        <time>2017-10-10T14:05:56Z</time>
      </trkpt>
      <trkpt lat="44.45491" lon="4.13728">
        <ele>367.81</ele>
        <time>2017-10-10T14:06:20Z</time>
      </trkpt>
      <trkpt lat="44.45497" lon="4.13704">
        <ele>355.7</ele>
        <time>2017-10-10T14:06:39Z</time>
      </trkpt>
      <trkpt lat="44.45496" lon="4.13676">
        <ele>360.07</ele>
        <time>2017-10-10T14:06:56Z</time>
      </trkpt>
      <trkpt lat="44.45497" lon="4.13649">
        <ele>362.51</ele>
        <time>2017-10-10T14:07:35Z</time>
      </trkpt>
      <trkpt lat="44.4546" lon="4.13454">
        <ele>334.69</ele>
        <time>2017-10-10T14:09:58Z</time>
      </trkpt>
      <trkpt lat="44.4548" lon="4.13454">
        <ele>358.59</ele>
        <time>2017-10-10T14:10:01Z</time>
      </trkpt>
      <trkpt lat="44.45477" lon="4.13428">
        <ele>349.75</ele>
        <time>2017-10-10T14:10:31Z</time>
      </trkpt>
      <trkpt lat="44.45457" lon="4.13426">
        <ele>355.99</ele>
        <time>2017-10-10T14:12:07Z</time>
      </trkpt>
      <trkpt lat="44.45471" lon="4.13441">
        <ele>357.61</ele>
        <time>2017-10-10T14:17:28Z</time>
      </trkpt>
      <trkpt lat="44.45485" lon="4.13459">
        <ele>353.41</ele>
        <time>2017-10-10T14:18:33Z</time>
      </trkpt>
      <trkpt lat="44.45505" lon="4.13463">
        <ele>356.36</ele>
        <time>2017-10-10T14:18:52Z</time>
      </trkpt>
      <trkpt lat="44.45522" lon="4.1347">
        <ele>357.3</ele>
        <time>2017-10-10T14:19:12Z</time>
      </trkpt>
      <trkpt lat="44.4554" lon="4.13479">
        <ele>358.68</ele>
        <time>2017-10-10T14:19:31Z</time>
      </trkpt>
      <trkpt lat="44.45558" lon="4.13487">
        <ele>358.49</ele>
        <time>2017-10-10T14:19:45Z</time>
      </trkpt>
      <trkpt lat="44.45573" lon="4.13503">
        <ele>361.66</ele>
        <time>2017-10-10T14:20:09Z</time>
      </trkpt>
      <trkpt lat="44.4559" lon="4.13513">
        <ele>367.19</ele>
        <time>2017-10-10T14:20:28Z</time>
      </trkpt>
      <trkpt lat="44.45608" lon="4.13518">
        <ele>365.69</ele>
        <time>2017-10-10T14:20:41Z</time>
      </trkpt>
      <trkpt lat="44.45615" lon="4.13544">
        <ele>364.91</ele>
        <time>2017-10-10T14:21:03Z</time>
      </trkpt>
      <trkpt lat="44.45632" lon="4.13556">
        <ele>368.96</ele>
        <time>2017-10-10T14:21:26Z</time>
      </trkpt>
      <trkpt lat="44.45648" lon="4.13569">
        <ele>374.54</ele>
        <time>2017-10-10T14:23:59Z</time>
      </trkpt>
      <trkpt lat="44.45663" lon="4.13582">
        <ele>378.39</ele>
        <time>2017-10-10T14:24:21Z</time>
      </trkpt>
      <trkpt lat="44.45681" lon="4.13594">
        <ele>380.09</ele>
        <time>2017-10-10T14:24:48Z</time>
      </trkpt>
      <trkpt lat="44.45697" lon="4.13605">
        <ele>383.79</ele>
        <time>2017-10-10T14:25:08Z</time>
      </trkpt>
      <trkpt lat="44.45715" lon="4.13616">
        <ele>383.53</ele>
        <time>2017-10-10T14:25:28Z</time>
      </trkpt>
      <trkpt lat="44.45733" lon="4.13623">
        <ele>390.12</ele>
        <time>2017-10-10T14:25:49Z</time>
      </trkpt>
      <trkpt lat="44.45751" lon="4.13632">
        <ele>390.32</ele>
        <time>2017-10-10T14:26:10Z</time>
      </trkpt>
      <trkpt lat="44.45767" lon="4.13643">
        <ele>393.69</ele>
        <time>2017-10-10T14:26:31Z</time>
      </trkpt>
      <trkpt lat="44.45777" lon="4.13666">
        <ele>394.69</ele>
        <time>2017-10-10T14:26:51Z</time>
      </trkpt>
      <trkpt lat="44.45795" lon="4.13673">
        <ele>391.02</ele>
        <time>2017-10-10T14:27:08Z</time>
      </trkpt>
      <trkpt lat="44.45807" lon="4.13693">
        <ele>387.6</ele>
        <time>2017-10-10T14:27:25Z</time>
      </trkpt>
      <trkpt lat="44.45821" lon="4.13709">
        <ele>380.78</ele>
        <time>2017-10-10T14:27:45Z</time>
      </trkpt>
      <trkpt lat="44.45832" lon="4.13731">
        <ele>377.99</ele>
        <time>2017-10-10T14:28:06Z</time>
      </trkpt>
      <trkpt lat="44.45848" lon="4.13745">
        <ele>383.02</ele>
        <time>2017-10-10T14:28:25Z</time>
      </trkpt>
      <trkpt lat="44.45849" lon="4.1377">
        <ele>391.68</ele>
        <time>2017-10-10T14:28:44Z</time>
      </trkpt>
      <trkpt lat="44.45855" lon="4.13796">
        <ele>389.99</ele>
        <time>2017-10-10T14:29:09Z</time>
      </trkpt>
      <trkpt lat="44.45867" lon="4.13815">
        <ele>400.01</ele>
        <time>2017-10-10T14:29:39Z</time>
      </trkpt>
      <trkpt lat="44.45883" lon="4.13831">
        <ele>399.9</ele>
        <time>2017-10-10T14:30:00Z</time>
      </trkpt>
      <trkpt lat="44.45899" lon="4.13843">
        <ele>405.35</ele>
        <time>2017-10-10T14:30:39Z</time>
      </trkpt>
      <trkpt lat="44.45917" lon="4.13853">
        <ele>406.88</ele>
        <time>2017-10-10T14:30:55Z</time>
      </trkpt>
      <trkpt lat="44.45934" lon="4.13861">
        <ele>411.27</ele>
        <time>2017-10-10T14:31:08Z</time>
      </trkpt>
      <trkpt lat="44.45952" lon="4.13865">
        <ele>423.8</ele>
        <time>2017-10-10T14:31:45Z</time>
      </trkpt>
      <trkpt lat="44.45971" lon="4.13866">
        <ele>425.58</ele>
        <time>2017-10-10T14:31:59Z</time>
      </trkpt>
      <trkpt lat="44.4599" lon="4.13869">
        <ele>427.69</ele>
        <time>2017-10-10T14:32:14Z</time>
      </trkpt>
      <trkpt lat="44.46008" lon="4.1386">
        <ele>430.44</ele>
        <time>2017-10-10T14:32:33Z</time>
      </trkpt>
      <trkpt lat="44.46026" lon="4.13857">
        <ele>437.13</ele>
        <time>2017-10-10T14:33:09Z</time>
      </trkpt>
      <trkpt lat="44.46045" lon="4.13856">
        <ele>423.38</ele>
        <time>2017-10-10T14:38:25Z</time>
      </trkpt>
      <trkpt lat="44.46062" lon="4.13862">
        <ele>424.77</ele>
        <time>2017-10-10T14:38:39Z</time>
      </trkpt>
      <trkpt lat="44.4608" lon="4.13873">
        <ele>431.17</ele>
        <time>2017-10-10T14:39:00Z</time>
      </trkpt>
      <trkpt lat="44.46069" lon="4.13893">
        <ele>437.9</ele>
        <time>2017-10-10T14:39:34Z</time>
      </trkpt>
      <trkpt lat="44.46054" lon="4.1391">
        <ele>437.39</ele>
        <time>2017-10-10T14:39:52Z</time>
      </trkpt>
      <trkpt lat="44.46037" lon="4.13916">
        <ele>441.28</ele>
        <time>2017-10-10T14:40:08Z</time>
      </trkpt>
      <trkpt lat="44.46022" lon="4.13933">
        <ele>435.29</ele>
        <time>2017-10-10T14:40:29Z</time>
      </trkpt>
      <trkpt lat="44.46008" lon="4.13949">
        <ele>428.68</ele>
        <time>2017-10-10T14:40:51Z</time>
      </trkpt>
      <trkpt lat="44.45993" lon="4.13965">
        <ele>432.03</ele>
        <time>2017-10-10T14:41:07Z</time>
      </trkpt>
      <trkpt lat="44.45977" lon="4.13979">
        <ele>433.44</ele>
        <time>2017-10-10T14:41:21Z</time>
      </trkpt>
      <trkpt lat="44.45961" lon="4.13991">
        <ele>434.17</ele>
        <time>2017-10-10T14:41:38Z</time>
      </trkpt>
      <trkpt lat="44.45946" lon="4.14006">
        <ele>431.33</ele>
        <time>2017-10-10T14:41:56Z</time>
      </trkpt>
      <trkpt lat="44.45928" lon="4.14019">
        <ele>431.66</ele>
        <time>2017-10-10T14:42:14Z</time>
      </trkpt>
      <trkpt lat="44.45911" lon="4.14024">
        <ele>436.29</ele>
        <time>2017-10-10T14:42:30Z</time>
      </trkpt>
      <trkpt lat="44.45893" lon="4.14029">
        <ele>442.39</ele>
        <time>2017-10-10T14:42:43Z</time>
      </trkpt>
      <trkpt lat="44.45875" lon="4.14036">
        <ele>444.11</ele>
        <time>2017-10-10T14:43:02Z</time>
      </trkpt>
      <trkpt lat="44.45859" lon="4.14048">
        <ele>438.69</ele>
        <time>2017-10-10T14:43:16Z</time>
      </trkpt>
      <trkpt lat="44.4584" lon="4.1405">
        <ele>438.68</ele>
        <time>2017-10-10T14:43:31Z</time>
      </trkpt>
      <trkpt lat="44.45822" lon="4.14047">
        <ele>438.69</ele>
        <time>2017-10-10T14:43:46Z</time>
      </trkpt>
      <trkpt lat="44.45805" lon="4.14037">
        <ele>435.64</ele>
        <time>2017-10-10T14:43:56Z</time>
      </trkpt>
      <trkpt lat="44.45786" lon="4.14031">
        <ele>438.4</ele>
        <time>2017-10-10T14:44:23Z</time>
      </trkpt>
      <trkpt lat="44.45768" lon="4.14026">
        <ele>431.81</ele>
        <time>2017-10-10T14:44:39Z</time>
      </trkpt>
      <trkpt lat="44.4575" lon="4.14025">
        <ele>425.72</ele>
        <time>2017-10-10T14:45:00Z</time>
      </trkpt>
      <trkpt lat="44.45739" lon="4.14003">
        <ele>423.42</ele>
        <time>2017-10-10T14:45:19Z</time>
      </trkpt>
      <trkpt lat="44.45719" lon="4.14008">
        <ele>424.99</ele>
        <time>2017-10-10T14:45:31Z</time>
      </trkpt>
      <trkpt lat="44.45701" lon="4.14006">
        <ele>431.57</ele>
        <time>2017-10-10T14:45:44Z</time>
      </trkpt>
      <trkpt lat="44.45682" lon="4.13999">
        <ele>425.73</ele>
        <time>2017-10-10T14:46:01Z</time>
      </trkpt>
      <trkpt lat="44.45663" lon="4.14001">
        <ele>421.69</ele>
        <time>2017-10-10T14:46:19Z</time>
      </trkpt>
      <trkpt lat="44.45645" lon="4.14003">
        <ele>422.47</ele>
        <time>2017-10-10T14:46:34Z</time>
      </trkpt>
      <trkpt lat="44.45626" lon="4.14001">
        <ele>419.79</ele>
        <time>2017-10-10T14:46:56Z</time>
      </trkpt>
      <trkpt lat="44.45608" lon="4.14007">
        <ele>419.42</ele>
        <time>2017-10-10T14:47:12Z</time>
      </trkpt>
      <trkpt lat="44.45592" lon="4.14019">
        <ele>406.44</ele>
        <time>2017-10-10T14:47:32Z</time>
      </trkpt>
      <trkpt lat="44.45573" lon="4.14025">
        <ele>409.87</ele>
        <time>2017-10-10T14:47:42Z</time>
      </trkpt>
      <trkpt lat="44.45557" lon="4.14036">
        <ele>404.31</ele>
        <time>2017-10-10T14:48:18Z</time>
      </trkpt>
      <trkpt lat="44.45542" lon="4.14053">
        <ele>408.48</ele>
        <time>2017-10-10T14:48:27Z</time>
      </trkpt>
      <trkpt lat="44.45526" lon="4.14065">
        <ele>408.07</ele>
        <time>2017-10-10T14:48:43Z</time>
      </trkpt>
      <trkpt lat="44.45508" lon="4.1407">
        <ele>410.45</ele>
        <time>2017-10-10T14:49:05Z</time>
      </trkpt>
      <trkpt lat="44.45492" lon="4.14084">
        <ele>409.69</ele>
        <time>2017-10-10T14:49:52Z</time>
      </trkpt>
      <trkpt lat="44.45438" lon="4.14141">
        <ele>401.69</ele>
        <time>2017-10-10T14:51:03Z</time>
      </trkpt>
      <trkpt lat="44.45424" lon="4.14159">
        <ele>401.7</ele>
        <time>2017-10-10T14:51:22Z</time>
      </trkpt>
      <trkpt lat="44.45413" lon="4.1418">
        <ele>400.31</ele>
        <time>2017-10-10T14:51:37Z</time>
      </trkpt>
      <trkpt lat="44.45403" lon="4.14201">
        <ele>399.49</ele>
        <time>2017-10-10T14:51:57Z</time>
      </trkpt>
      <trkpt lat="44.45394" lon="4.14227">
        <ele>404.86</ele>
        <time>2017-10-10T14:52:20Z</time>
      </trkpt>
      <trkpt lat="44.45382" lon="4.14248">
        <ele>403.5</ele>
        <time>2017-10-10T14:52:55Z</time>
      </trkpt>
      <trkpt lat="44.45372" lon="4.14271">
        <ele>400.01</ele>
        <time>2017-10-10T14:53:14Z</time>
      </trkpt>
      <trkpt lat="44.45362" lon="4.14294">
        <ele>400.3</ele>
        <time>2017-10-10T14:53:27Z</time>
      </trkpt>
      <trkpt lat="44.4535" lon="4.14314">
        <ele>401.31</ele>
        <time>2017-10-10T14:53:43Z</time>
      </trkpt>
      <trkpt lat="44.45336" lon="4.14331">
        <ele>399.68</ele>
        <time>2017-10-10T14:53:58Z</time>
      </trkpt>
      <trkpt lat="44.45322" lon="4.14351">
        <ele>399.47</ele>
        <time>2017-10-10T14:54:11Z</time>
      </trkpt>
      <trkpt lat="44.45311" lon="4.14374">
        <ele>398.01</ele>
        <time>2017-10-10T14:54:31Z</time>
      </trkpt>
      <trkpt lat="44.45301" lon="4.14399">
        <ele>398.11</ele>
        <time>2017-10-10T14:54:55Z</time>
      </trkpt>
      <trkpt lat="44.45289" lon="4.14418">
        <ele>401.3</ele>
        <time>2017-10-10T14:55:02Z</time>
      </trkpt>
      <trkpt lat="44.45283" lon="4.14445">
        <ele>396.7</ele>
        <time>2017-10-10T14:55:20Z</time>
      </trkpt>
      <trkpt lat="44.45274" lon="4.1447">
        <ele>395.69</ele>
        <time>2017-10-10T14:55:39Z</time>
      </trkpt>
      <trkpt lat="44.45271" lon="4.14495">
        <ele>394.6</ele>
        <time>2017-10-10T14:56:10Z</time>
      </trkpt>
      <trkpt lat="44.45266" lon="4.1452">
        <ele>397.59</ele>
        <time>2017-10-10T14:56:26Z</time>
      </trkpt>
      <trkpt lat="44.45258" lon="4.14545">
        <ele>396.59</ele>
        <time>2017-10-10T14:56:41Z</time>
      </trkpt>
      <trkpt lat="44.45253" lon="4.1457">
        <ele>397.29</ele>
        <time>2017-10-10T14:57:03Z</time>
      </trkpt>
      <trkpt lat="44.45248" lon="4.14596">
        <ele>397.6</ele>
        <time>2017-10-10T14:57:21Z</time>
      </trkpt>
      <trkpt lat="44.45245" lon="4.14622">
        <ele>398.69</ele>
        <time>2017-10-10T14:57:31Z</time>
      </trkpt>
      <trkpt lat="44.4524" lon="4.14647">
        <ele>392.69</ele>
        <time>2017-10-10T14:57:58Z</time>
      </trkpt>
      <trkpt lat="44.45238" lon="4.14673">
        <ele>387.38</ele>
        <time>2017-10-10T14:58:32Z</time>
      </trkpt>
      <trkpt lat="44.45242" lon="4.14699">
        <ele>391.59</ele>
        <time>2017-10-10T14:58:43Z</time>
      </trkpt>
      <trkpt lat="44.45239" lon="4.14725">
        <ele>396.05</ele>
        <time>2017-10-10T14:58:52Z</time>
      </trkpt>
      <trkpt lat="44.45239" lon="4.14752">
        <ele>392.2</ele>
        <time>2017-10-10T14:59:23Z</time>
      </trkpt>
      <trkpt lat="44.4524" lon="4.14777">
        <ele>391.68</ele>
        <time>2017-10-10T14:59:39Z</time>
      </trkpt>
      <trkpt lat="44.45235" lon="4.14803">
        <ele>392.39</ele>
        <time>2017-10-10T15:00:01Z</time>
      </trkpt>
      <trkpt lat="44.45236" lon="4.14831">
        <ele>399.11</ele>
        <time>2017-10-10T15:00:19Z</time>
      </trkpt>
      <trkpt lat="44.45247" lon="4.14854">
        <ele>391.48</ele>
        <time>2017-10-10T15:00:38Z</time>
      </trkpt>
      <trkpt lat="44.45258" lon="4.14875">
        <ele>394.95</ele>
        <time>2017-10-10T15:00:44Z</time>
      </trkpt>
      <trkpt lat="44.45259" lon="4.14903">
        <ele>394.36</ele>
        <time>2017-10-10T15:01:04Z</time>
      </trkpt>
      <trkpt lat="44.45262" lon="4.14931">
        <ele>389.27</ele>
        <time>2017-10-10T15:01:29Z</time>
      </trkpt>
      <trkpt lat="44.45264" lon="4.14956">
        <ele>386.97</ele>
        <time>2017-10-10T15:01:47Z</time>
      </trkpt>
      <trkpt lat="44.45278" lon="4.14974">
        <ele>385.7</ele>
        <time>2017-10-10T15:02:04Z</time>
      </trkpt>
      <trkpt lat="44.4529" lon="4.14994">
        <ele>382.72</ele>
        <time>2017-10-10T15:02:21Z</time>
      </trkpt>
      <trkpt lat="44.45297" lon="4.15017">
        <ele>381.59</ele>
        <time>2017-10-10T15:02:40Z</time>
      </trkpt>
      <trkpt lat="44.45305" lon="4.1504">
        <ele>383.09</ele>
        <time>2017-10-10T15:02:55Z</time>
      </trkpt>
      <trkpt lat="44.45314" lon="4.15062">
        <ele>385.69</ele>
        <time>2017-10-10T15:03:13Z</time>
      </trkpt>
      <trkpt lat="44.45321" lon="4.15086">
        <ele>385.7</ele>
        <time>2017-10-10T15:03:27Z</time>
      </trkpt>
      <trkpt lat="44.4533" lon="4.15108">
        <ele>382.64</ele>
        <time>2017-10-10T15:03:54Z</time>
      </trkpt>
      <trkpt lat="44.45337" lon="4.15133">
        <ele>382.76</ele>
        <time>2017-10-10T15:04:13Z</time>
      </trkpt>
      <trkpt lat="44.45347" lon="4.15157">
        <ele>376.33</ele>
        <time>2017-10-10T15:04:54Z</time>
      </trkpt>
      <trkpt lat="44.45353" lon="4.15182">
        <ele>381.59</ele>
        <time>2017-10-10T15:05:01Z</time>
      </trkpt>
      <trkpt lat="44.45364" lon="4.15206">
        <ele>380.32</ele>
        <time>2017-10-10T15:05:20Z</time>
      </trkpt>
      <trkpt lat="44.45372" lon="4.1523">
        <ele>378.4</ele>
        <time>2017-10-10T15:05:36Z</time>
      </trkpt>
      <trkpt lat="44.45373" lon="4.15257">
        <ele>382.93</ele>
        <time>2017-10-10T15:05:57Z</time>
      </trkpt>
    </trkseg>
  </trk>
</gpx>